Time;durP1;ratioP1;P1;durP2;ratioP2;P2;SDS_P1;SDS_P2;PMS_P1;PMS_P2;Temp;Humidity;BMP_temperature;BMP_pressure;BME280_temperature;BME280_humidity;BME280_pressure;Samples;Min_cycle;Max_cycle;Signal;HPM_P1;HPM_P2
2022/06/30 00:00:20;;;;;;;10.07;5.65;;;;;;;15.60;55.31;99793.44;5116720;27;20046;-70
2022/06/30 00:02:45;;;;;;;11.13;4.90;;;;;;;15.58;55.90;99781.09;5092437;27;20042;-70
2022/06/30 00:05:10;;;;;;;10.10;5.32;;;;;;;15.55;56.12;99792.16;5116449;27;20042;-71
2022/06/30 00:07:34;;;;;;;16.88;5.13;;;;;;;15.53;55.83;99784.19;5116787;27;20034;-70
2022/06/30 00:10:00;;;;;;;8.73;4.50;;;;;;;15.50;55.88;99789.00;5080525;27;20043;-74
2022/06/30 00:12:24;;;;;;;9.80;4.50;;;;;;;15.49;55.59;99785.44;5116577;27;20043;-72
2022/06/30 00:14:49;;;;;;;10.20;5.22;;;;;;;15.47;55.88;99778.50;5097283;27;20041;-67
2022/06/30 00:17:14;;;;;;;9.23;4.70;;;;;;;15.44;55.77;99782.34;5116911;27;20041;-74
2022/06/30 00:19:40;;;;;;;10.57;5.03;;;;;;;15.43;56.39;99777.94;5116546;27;20046;-74
2022/06/30 00:22:07;;;;;;;9.50;5.10;;;;;;;15.42;56.65;99776.25;5117271;27;20492;-74
2022/06/30 00:24:32;;;;;;;10.27;5.10;;;;;;;15.39;56.40;99773.81;5080201;27;20046;-74
2022/06/30 00:26:57;;;;;;;10.38;4.97;;;;;;;15.35;56.73;99769.69;5098889;27;20121;-74
2022/06/30 00:29:22;;;;;;;7.00;4.40;;;;;;;15.35;56.28;99780.44;5116757;27;20117;-74
2022/06/30 00:31:46;;;;;;;7.05;5.00;;;;;;;15.35;56.45;99779.63;5079091;27;20066;-76
2022/06/30 00:34:11;;;;;;;9.57;4.53;;;;;;;15.33;56.69;99776.22;5117416;27;20030;-75
2022/06/30 00:36:36;;;;;;;10.50;5.25;;;;;;;15.32;56.50;99775.38;5097910;27;20135;-72
2022/06/30 00:39:01;;;;;;;9.23;5.40;;;;;;;15.31;56.83;99776.34;5116616;27;20166;-72
2022/06/30 00:41:25;;;;;;;13.63;6.07;;;;;;;15.28;56.73;99779.31;5111436;27;20061;-71
2022/06/30 00:43:51;;;;;;;12.18;5.45;;;;;;;15.27;56.87;99782.97;5097201;27;20035;-73
2022/06/30 00:46:16;;;;;;;12.05;5.22;;;;;;;15.22;57.01;99769.97;5093815;27;20045;-76
2022/06/30 00:48:42;;;;;;;14.65;5.22;;;;;;;15.22;57.31;99774.50;5097568;27;20035;-73
2022/06/30 00:51:07;;;;;;;14.25;5.63;;;;;;;15.18;57.55;99773.06;5093713;27;20076;-70
2022/06/30 00:53:35;;;;;;;11.52;4.95;;;;;;;15.18;57.40;99775.75;5125607;27;20041;-69
2022/06/30 00:56:02;;;;;;;8.95;5.32;;;;;;;15.13;57.74;99765.38;5127647;27;20038;-74
2022/06/30 00:58:28;;;;;;;8.68;5.15;;;;;;;15.13;57.99;99765.38;5115101;27;20041;-71
2022/06/30 01:00:53;;;;;;;11.52;5.70;;;;;;;15.11;58.32;99763.84;5115567;27;20073;-71
2022/06/30 01:03:20;;;;;;;12.65;5.47;;;;;;;15.09;58.03;99761.28;5115263;27;20058;-74
2022/06/30 01:05:46;;;;;;;15.15;5.05;;;;;;;15.09;58.37;99766.66;5115672;27;20042;-74
2022/06/30 01:08:11;;;;;;;8.10;5.32;;;;;;;15.08;58.49;99761.44;5115649;27;20035;-71
2022/06/30 01:13:19;;;;;;;11.98;6.57;;;;;;;15.05;58.33;99751.81;5111990;27;20393;-74
2022/06/30 01:15:44;;;;;;;12.88;5.25;;;;;;;15.06;58.70;99766.06;5096911;27;20038;-72
2022/06/30 01:18:09;;;;;;;18.05;5.90;;;;;;;15.04;58.73;99762.66;5116289;27;20399;-73
2022/06/30 01:20:34;;;;;;;10.98;5.65;;;;;;;15.04;59.02;99760.84;5095514;27;20514;-76
2022/06/30 01:23:01;;;;;;;10.35;5.50;;;;;;;15.01;59.15;99750.34;5117009;27;20054;-79
2022/06/30 01:25:29;;;;;;;13.05;6.05;;;;;;;15.04;58.97;99754.63;5079095;27;20043;-78
2022/06/30 01:27:54;;;;;;;14.57;6.63;;;;;;;15.03;58.82;99750.22;5098196;27;20042;-75
2022/06/30 01:30:20;;;;;;;10.68;6.15;;;;;;;15.03;59.04;99748.41;5097673;27;20043;-74
2022/06/30 01:32:44;;;;;;;13.52;6.60;;;;;;;15.06;59.20;99752.66;5115901;27;20092;-73
2022/06/30 01:35:10;;;;;;;16.38;5.85;;;;;;;15.06;59.17;99748.13;5095292;27;20046;-72
2022/06/30 01:37:44;;;;;;;15.85;6.20;;;;;;;15.13;58.61;99757.34;5116991;27;20043;-75
2022/06/30 01:40:10;;;;;;;16.23;6.43;;;;;;;15.09;59.33;99757.75;5090686;27;20438;-75
2022/06/30 01:42:35;;;;;;;13.27;7.10;;;;;;;15.10;58.99;99754.94;5116293;27;20050;-78
2022/06/30 01:45:00;;;;;;;16.98;6.47;;;;;;;15.14;59.26;99752.81;5116176;27;20086;-72
2022/06/30 01:47:25;;;;;;;16.02;6.72;;;;;;;15.18;59.32;99751.56;5052522;28;20058;-73
2022/06/30 01:49:49;;;;;;;18.65;6.78;;;;;;;15.21;59.22;99745.94;5052364;28;20082;-74
2022/06/30 01:52:14;;;;;;;16.33;6.57;;;;;;;15.27;58.23;99753.44;5035838;28;20056;-73
2022/06/30 01:54:39;;;;;;;19.63;6.38;;;;;;;15.31;58.36;99754.03;5035086;28;20048;-73
2022/06/30 01:57:04;;;;;;;12.68;6.45;;;;;;;15.37;58.67;99756.13;5033603;28;20113;-74
2022/06/30 01:59:29;;;;;;;13.63;5.80;;;;;;;15.42;58.48;99741.31;5055469;28;20051;-74
2022/06/30 02:01:53;;;;;;;16.23;6.28;;;;;;;15.46;58.96;99740.03;5053078;28;20105;-75
2022/06/30 02:07:02;;;;;;;14.63;7.10;;;;;;;15.63;58.06;99737.72;5052510;28;20150;-75
2022/06/30 02:09:26;;;;;;;19.88;7.82;;;;;;;15.71;58.46;99733.31;5052326;28;20122;-75
2022/06/30 02:12:44;;;;;;;19.13;7.03;;;;;;;15.80;58.00;99732.47;5052415;28;20497;-75
2022/06/30 02:14:36;;;;;;;17.73;6.78;;;;;;;15.91;57.90;99728.84;5052651;28;20043;-75
2022/06/30 02:17:01;;;;;;;13.35;7.05;;;;;;;16.01;57.62;99736.91;5052470;28;20032;-74
2022/06/30 02:19:26;;;;;;;16.63;7.22;;;;;;;16.09;57.56;99726.28;5111801;27;20070;-74
2022/06/30 02:21:51;;;;;;;25.92;7.93;;;;;;;16.18;57.06;99730.78;5119210;27;20512;-74
2022/06/30 02:24:16;;;;;;;13.45;7.07;;;;;;;16.29;57.31;99719.88;5124120;27;20042;-74
2022/06/30 02:26:41;;;;;;;18.52;7.75;;;;;;;16.42;56.62;99724.94;5123253;27;20039;-71
2022/06/30 02:29:06;;;;;;;17.80;7.57;;;;;;;16.54;56.34;99721.94;5119767;27;20054;-72
2022/06/30 02:31:31;;;;;;;19.02;7.57;;;;;;;16.68;56.37;99726.06;5119688;27;20038;-73
2022/06/30 02:33:55;;;;;;;15.68;6.25;;;;;;;16.79;56.52;99730.41;5120215;27;20047;-73
2022/06/30 02:36:20;;;;;;;15.88;6.43;;;;;;;16.93;56.19;99722.69;5103193;27;20047;-72
2022/06/30 02:38:45;;;;;;;17.23;8.65;;;;;;;17.06;56.10;99733.97;5120851;27;20047;-75
2022/06/30 02:41:10;;;;;;;21.35;7.38;;;;;;;17.20;55.45;99729.09;5100674;27;20034;-74
2022/06/30 02:43:35;;;;;;;14.60;6.80;;;;;;;17.32;54.78;99727.91;5119725;27;20046;-71
2022/06/30 02:45:59;;;;;;;14.48;7.53;;;;;;;17.45;54.41;99727.53;5119317;27;20046;-71
2022/06/30 02:48:24;;;;;;;16.13;7.00;;;;;;;17.53;53.98;99728.47;5119258;27;20039;-71
2022/06/30 02:50:49;;;;;;;17.67;7.63;;;;;;;17.54;53.59;99732.88;5100125;27;20031;-69
2022/06/30 02:53:14;;;;;;;12.77;6.53;;;;;;;17.53;53.76;99735.72;5119324;27;20050;-73
2022/06/30 02:55:39;;;;;;;16.42;7.25;;;;;;;17.57;52.98;99732.56;5102033;27;20039;-74
2022/06/30 02:58:03;;;;;;;12.05;6.22;;;;;;;17.69;52.61;99735.94;5120067;27;20054;-71
2022/06/30 03:00:28;;;;;;;16.15;7.15;;;;;;;17.81;51.59;99733.88;5101461;27;20038;-72
2022/06/30 03:02:53;;;;;;;12.60;6.38;;;;;;;17.95;51.85;99741.41;5119957;27;20465;-76
2022/06/30 03:05:18;;;;;;;13.60;6.53;;;;;;;18.06;50.98;99728.53;5084305;27;20054;-75
2022/06/30 03:07:43;;;;;;;16.50;6.85;;;;;;;18.18;51.11;99739.06;5121060;27;20042;-78
2022/06/30 03:10:08;;;;;;;18.05;7.22;;;;;;;18.28;50.47;99738.00;5119891;27;20534;-73
2022/06/30 03:12:33;;;;;;;19.60;6.53;;;;;;;18.40;50.24;99731.31;5100062;27;20476;-71
2022/06/30 03:14:58;;;;;;;14.32;6.47;;;;;;;18.52;49.67;99735.47;5083187;27;20046;-72
2022/06/30 03:17:24;;;;;;;25.13;7.22;;;;;;;18.62;48.98;99730.03;5118341;27;20087;-71
2022/06/30 03:19:49;;;;;;;22.10;7.60;;;;;;;18.71;48.61;99737.16;5100501;27;20405;-75
2022/06/30 03:22:14;;;;;;;14.93;6.68;;;;;;;18.81;49.17;99739.75;5082759;27;20512;-75
2022/06/30 03:24:39;;;;;;;14.45;6.95;;;;;;;18.94;48.84;99734.75;5117565;27;20041;-73
2022/06/30 03:27:04;;;;;;;27.45;8.48;;;;;;;19.11;48.02;99741.09;5082008;27;20031;-71
2022/06/30 03:29:29;;;;;;;21.05;7.15;;;;;;;19.21;47.59;99739.94;5097612;27;20073;-71
2022/06/30 03:31:54;;;;;;;21.55;8.13;;;;;;;19.29;47.56;99741.00;5097908;27;20030;-72
2022/06/30 03:34:19;;;;;;;22.20;7.88;;;;;;;19.38;46.96;99740.03;5098443;27;20543;-72
2022/06/30 03:36:44;;;;;;;22.90;7.82;;;;;;;19.48;47.34;99727.22;5117588;27;20513;-72
2022/06/30 03:39:09;;;;;;;25.10;8.77;;;;;;;19.63;46.70;99731.03;5096914;27;20409;-73
2022/06/30 03:41:34;;;;;;;19.58;8.20;;;;;;;19.82;46.72;99729.88;5114468;27;20034;-72
2022/06/30 03:43:58;;;;;;;30.67;10.48;;;;;;;20.02;46.16;99722.28;5099560;27;20043;-73
2022/06/30 03:46:23;;;;;;;23.65;8.52;;;;;;;20.25;45.96;99734.97;5118841;27;20062;-73
2022/06/30 03:48:48;;;;;;;24.05;8.00;;;;;;;20.45;45.73;99724.66;5101430;27;20070;-72
2022/06/30 03:51:13;;;;;;;19.75;7.70;;;;;;;20.65;45.58;99739.53;5100033;27;20413;-74
2022/06/30 03:53:39;;;;;;;22.92;7.75;;;;;;;20.84;45.27;99737.47;5100091;27;20053;-75
2022/06/30 03:56:04;;;;;;;21.25;7.30;;;;;;;20.91;44.95;99738.47;5098900;27;20095;-74
2022/06/30 03:58:28;;;;;;;23.95;7.88;;;;;;;20.94;44.35;99733.56;5117753;27;20125;-75
2022/06/30 04:00:53;;;;;;;16.90;7.72;;;;;;;20.95;45.06;99737.13;5119009;27;20133;-76
2022/06/30 04:03:18;;;;;;;15.02;6.22;;;;;;;20.92;43.92;99732.03;5100599;27;20054;-77
2022/06/30 04:05:43;;;;;;;12.40;5.00;;;;;;;20.91;42.98;99738.47;5122578;27;20051;-76
2022/06/30 04:08:08;;;;;;;10.50;4.95;;;;;;;20.97;41.86;99737.78;5123752;27;20045;-75
2022/06/30 04:10:32;;;;;;;8.13;4.15;;;;;;;21.17;41.41;99735.50;5122585;27;20043;-74
2022/06/30 04:12:57;;;;;;;13.35;5.10;;;;;;;21.38;41.87;99736.63;5110892;27;20061;-75
2022/06/30 04:15:22;;;;;;;11.00;5.20;;;;;;;21.65;40.38;99738.03;5124569;27;20752;-75
2022/06/30 04:17:47;;;;;;;15.07;4.80;;;;;;;21.89;40.08;99737.03;5120990;27;20054;-76
2022/06/30 04:20:18;;;;;;;7.78;3.83;;;;;;;22.14;39.40;99731.44;5119592;27;20038;-76
2022/06/30 04:22:47;;;;;;;9.25;3.47;;;;;;;22.41;38.41;99737.16;5099055;27;20424;-75
2022/06/30 04:25:13;;;;;;;9.32;4.30;;;;;;;22.59;38.03;99734.09;5098816;27;20407;-76
2022/06/30 04:27:45;;;;;;;5.57;3.75;;;;;;;22.73;37.92;99732.44;5098671;27;20042;-75
2022/06/30 04:30:11;;;;;;;7.05;4.07;;;;;;;22.76;37.70;99727.53;5081928;27;20039;-74
2022/06/30 04:32:38;;;;;;;6.43;3.63;;;;;;;22.82;37.64;99731.34;5117912;27;20091;-75
2022/06/30 04:35:09;;;;;;;6.75;4.20;;;;;;;23.00;37.53;99734.56;5100335;27;20137;-74
2022/06/30 04:37:34;;;;;;;13.75;4.13;;;;;;;23.21;38.09;99739.25;5065974;27;20089;-74
2022/06/30 04:42:42;;;;;;;6.75;4.05;;;;;;;23.86;37.05;99722.91;5118893;27;20046;-74
2022/06/30 04:45:07;;;;;;;6.93;4.20;;;;;;;24.18;36.88;99735.19;5117905;27;20165;-75
2022/06/30 04:47:35;;;;;;;8.00;3.47;;;;;;;24.41;35.15;99734.16;5117674;27;20039;-74
2022/06/30 04:50:00;;;;;;;6.07;3.30;;;;;;;24.42;34.19;99733.97;5082737;27;20042;-74
2022/06/30 04:52:25;;;;;;;7.72;3.60;;;;;;;24.31;34.39;99725.47;5099988;27;20042;-73
2022/06/30 04:54:49;;;;;;;6.72;4.13;;;;;;;24.26;34.76;99726.09;5116896;27;20051;-73
2022/06/30 04:57:14;;;;;;;5.45;3.30;;;;;;;24.32;34.68;99719.00;5116766;27;20042;-73
2022/06/30 04:59:39;;;;;;;4.60;3.30;;;;;;;24.32;34.10;99725.28;5117056;27;20443;-74
2022/06/30 05:02:04;;;;;;;12.90;3.70;;;;;;;24.41;33.71;99718.66;5117116;27;20046;-73
2022/06/30 05:04:28;;;;;;;5.13;2.97;;;;;;;24.45;32.61;99714.50;5098100;27;20058;-73
2022/06/30 05:06:53;;;;;;;4.68;2.70;;;;;;;24.48;32.76;99718.72;5117235;27;20065;-73
2022/06/30 05:09:18;;;;;;;3.42;2.58;;;;;;;24.57;32.29;99712.94;5099007;27;20058;-72
2022/06/30 05:11:43;;;;;;;6.50;2.85;;;;;;;24.69;32.67;99715.09;5085096;27;20046;-72
2022/06/30 05:14:07;;;;;;;3.65;2.55;;;;;;;24.86;32.24;99709.13;5117982;27;20091;-71
2022/06/30 05:16:32;;;;;;;4.00;2.65;;;;;;;25.11;31.69;99708.69;5098460;27;20070;-72
2022/06/30 05:18:57;;;;;;;7.60;2.83;;;;;;;25.25;31.08;99702.25;5098437;27;20095;-71
2022/06/30 05:21:22;;;;;;;6.03;2.60;;;;;;;25.42;31.45;99708.19;5098225;27;20042;-73
2022/06/30 05:26:28;;;;;;;8.55;3.55;;;;;;;25.61;30.78;99713.78;5098711;27;20042;-72
2022/06/30 05:26:31;;;;;;;11.63;4.63;;;;;;;25.80;30.83;99720.34;5116776;27;20046;-72
2022/06/30 05:28:56;;;;;;;11.75;3.47;;;;;;;25.91;29.82;99718.91;5100344;27;20047;-75
2022/06/30 05:31:21;;;;;;;5.00;2.63;;;;;;;25.99;29.54;99710.50;5101131;27;20038;-76
2022/06/30 05:33:46;;;;;;;3.17;2.53;;;;;;;26.01;29.48;99720.19;5119164;27;20042;-76
2022/06/30 05:36:11;;;;;;;6.57;2.63;;;;;;;26.09;29.09;99723.75;5082274;27;20046;-72
2022/06/30 05:38:36;;;;;;;7.68;2.90;;;;;;;26.17;28.81;99718.97;5099544;27;20485;-72
2022/06/30 05:41:00;;;;;;;6.45;3.90;;;;;;;26.43;28.55;99706.38;5098662;27;20101;-74
2022/06/30 05:43:25;;;;;;;3.53;2.75;;;;;;;26.87;28.20;99716.63;5099298;27;20504;-74
2022/06/30 05:45:52;;;;;;;6.60;2.90;;;;;;;27.35;27.34;99711.69;5117157;27;20042;-74
2022/06/30 05:48:18;;;;;;;4.30;2.63;;;;;;;27.85;26.65;99712.78;5118127;27;20074;-76
2022/06/30 05:50:42;;;;;;;6.57;4.05;;;;;;;28.23;25.59;99712.75;5118413;27;20083;-77
2022/06/30 05:53:07;;;;;;;8.88;3.60;;;;;;;28.66;25.79;99712.00;5118749;27;20037;-74
2022/06/30 05:55:32;;;;;;;6.15;2.50;;;;;;;29.15;24.71;99720.16;5101679;27;20500;-73
2022/06/30 05:58:04;;;;;;;5.50;2.47;;;;;;;29.61;23.75;99718.78;5104169;27;20077;-74
2022/06/30 06:00:32;;;;;;;12.40;3.20;;;;;;;30.18;22.90;99713.78;5121262;27;20504;-73
2022/06/30 06:02:57;;;;;;;2.97;2.50;;;;;;;30.85;22.14;99715.22;5101540;27;20062;-73
2022/06/30 06:05:22;;;;;;;6.80;2.50;;;;;;;31.58;21.49;99720.16;5128180;27;20057;-73
2022/06/30 06:07:48;;;;;;;4.97;2.90;;;;;;;32.31;20.59;99727.69;5125269;27;20026;-74
2022/06/30 06:10:15;;;;;;;4.68;2.72;;;;;;;32.87;19.98;99714.81;5119809;27;20543;-73
2022/06/30 06:12:42;;;;;;;3.13;2.85;;;;;;;33.39;19.54;99706.19;5119469;27;20027;-71
2022/06/30 06:15:08;;;;;;;6.47;3.30;;;;;;;33.95;19.29;99710.47;5119324;27;20047;-71
2022/06/30 06:17:46;;;;;;;10.80;3.70;;;;;;;34.43;18.82;99712.34;5100798;27;20412;-71
2022/06/30 06:20:12;;;;;;;7.22;3.40;;;;;;;34.98;17.58;99716.66;5119243;27;20047;-75
2022/06/30 06:22:37;;;;;;;3.60;2.90;;;;;;;35.56;16.82;99715.59;5100400;27;20046;-71
2022/06/30 06:25:03;;;;;;;7.05;2.97;;;;;;;36.21;16.54;99719.72;5100044;27;20078;-71
2022/06/30 06:27:27;;;;;;;6.30;3.55;;;;;;;36.66;16.06;99712.50;5100479;27;20039;-71
2022/06/30 06:29:52;;;;;;;6.47;3.55;;;;;;;37.18;15.92;99711.34;5119117;27;20095;-70
2022/06/30 06:32:17;;;;;;;6.30;3.55;;;;;;;37.57;15.37;99728.19;5083586;27;20548;-71
2022/06/30 06:34:42;;;;;;;6.28;3.55;;;;;;;37.85;14.56;99718.34;5118991;27;20030;-72
2022/06/30 06:37:06;;;;;;;6.72;3.55;;;;;;;38.14;14.41;99716.53;5100967;27;20412;-71
2022/06/30 06:39:32;;;;;;;4.82;3.67;;;;;;;38.47;13.08;99715.72;5118914;27;20508;-70
2022/06/30 06:41:56;;;;;;;3.85;3.55;;;;;;;38.88;13.08;99720.94;5119103;27;20046;-71
2022/06/30 06:44:21;;;;;;;5.13;3.60;;;;;;;39.22;12.95;99721.72;5118871;27;20441;-70
2022/06/30 06:46:46;;;;;;;5.18;3.97;;;;;;;39.56;12.50;99721.63;5100696;27;20046;-71
2022/06/30 06:49:10;;;;;;;5.22;3.80;;;;;;;39.96;11.74;99727.00;5100486;27;20125;-70
2022/06/30 06:51:35;;;;;;;4.22;3.83;;;;;;;40.30;11.19;99730.38;5100159;27;20054;-72
2022/06/30 06:54:01;;;;;;;5.28;4.60;;;;;;;40.50;10.55;99724.47;5119109;27;20374;-71
2022/06/30 06:56:26;;;;;;;3.72;3.40;;;;;;;40.87;9.92;99729.16;5083291;27;20053;-71
2022/06/30 06:58:51;;;;;;;4.72;3.65;;;;;;;40.78;9.54;99724.56;5119074;27;20119;-71
2022/06/30 07:01:16;;;;;;;3.63;3.40;;;;;;;40.20;10.33;99722.97;5119028;27;20524;-71
2022/06/30 07:03:41;;;;;;;3.65;3.35;;;;;;;39.74;10.92;99708.81;5100144;27;20046;-70
2022/06/30 07:06:06;;;;;;;12.10;4.18;;;;;;;39.27;11.09;99700.47;5100121;27;20039;-72
2022/06/30 07:08:31;;;;;;;10.80;3.75;;;;;;;38.94;11.21;99703.06;5118565;27;20039;-72
2022/06/30 07:10:57;;;;;;;6.07;4.05;;;;;;;39.15;11.09;99706.47;5118661;27;20071;-71
2022/06/30 07:13:21;;;;;;;4.07;3.70;;;;;;;39.73;10.74;99704.34;5100036;27;20049;-71
2022/06/30 07:15:46;;;;;;;4.63;4.20;;;;;;;40.45;10.91;99712.53;5099960;27;20046;-71
2022/06/30 07:18:11;;;;;;;4.90;4.15;;;;;;;41.24;10.48;99711.41;5082312;27;20489;-69
2022/06/30 07:20:35;;;;;;;5.85;4.50;;;;;;;42.07;9.74;99705.78;5082561;27;20042;-72
2022/06/30 07:23:00;;;;;;;5.03;4.53;;;;;;;42.65;9.41;99708.56;5099633;27;20047;-71
2022/06/30 07:25:25;;;;;;;4.97;4.40;;;;;;;43.26;9.58;99704.94;5118458;27;20089;-72
2022/06/30 07:27:49;;;;;;;8.35;5.65;;;;;;;43.67;8.95;99707.41;5118133;27;20038;-72
2022/06/30 07:30:14;;;;;;;5.75;5.05;;;;;;;44.01;8.45;99715.09;5119165;27;20048;-73
2022/06/30 07:32:39;;;;;;;7.28;5.07;;;;;;;44.38;8.46;99712.78;5100189;27;20077;-72
2022/06/30 07:35:06;;;;;;;7.57;5.47;;;;;;;44.81;8.35;99716.38;5084169;27;20095;-71
2022/06/30 07:37:30;;;;;;;7.18;5.88;;;;;;;45.31;8.12;99715.72;5120983;27;20069;-70
2022/06/30 07:39:55;;;;;;;8.52;5.95;;;;;;;45.72;8.07;99706.56;5106674;27;20038;-73
2022/06/30 07:42:20;;;;;;;7.28;6.57;;;;;;;46.19;8.03;99717.69;5089294;27;20158;-72
2022/06/30 07:44:45;;;;;;;7.13;6.43;;;;;;;46.92;7.60;99718.84;5114060;27;20057;-71
2022/06/30 07:47:10;;;;;;;8.77;7.88;;;;;;;48.02;7.30;99719.69;5114246;27;20034;-72
2022/06/30 07:49:35;;;;;;;9.65;7.95;;;;;;;48.97;6.91;99712.38;5132931;27;20099;-71
2022/06/30 07:52:00;;;;;;;10.70;9.82;;;;;;;49.75;6.56;99722.06;5132676;27;20034;-72
2022/06/30 07:54:25;;;;;;;10.85;9.80;;;;;;;50.14;5.83;99720.09;5108286;27;20074;-70
2022/06/30 07:56:50;;;;;;;16.67;13.48;;;;;;;50.46;6.24;99717.97;5099416;27;20042;-71
2022/06/30 07:59:14;;;;;;;12.35;11.27;;;;;;;50.47;5.75;99719.59;5117854;27;20389;-71
2022/06/30 08:01:39;;;;;;;14.10;13.00;;;;;;;50.44;5.96;99720.38;5098873;27;20114;-71
2022/06/30 08:04:04;;;;;;;13.00;12.10;;;;;;;50.36;5.83;99712.91;5081541;27;20045;-73
2022/06/30 08:06:29;;;;;;;12.27;11.32;;;;;;;50.40;5.94;99717.47;5117447;27;20080;-71
2022/06/30 08:08:55;;;;;;;14.52;13.13;;;;;;;50.29;5.63;99701.41;5081731;27;20038;-72
2022/06/30 08:11:19;;;;;;;14.25;13.07;;;;;;;50.27;5.43;99707.47;5129256;27;20440;-71
2022/06/30 08:13:44;;;;;;;14.25;13.13;;;;;;;50.39;5.35;99695.13;5123658;27;20080;-72
2022/06/30 08:16:11;;;;;;;13.32;12.45;;;;;;;50.50;5.04;99705.50;5117202;27;20042;-72
2022/06/30 08:18:36;;;;;;;14.15;13.15;;;;;;;50.63;5.28;99688.34;5116971;27;20046;-72
2022/06/30 08:21:01;;;;;;;16.30;14.98;;;;;;;51.31;4.84;99684.72;5117273;27;20129;-72
2022/06/30 08:23:25;;;;;;;18.35;16.27;;;;;;;52.00;5.04;99691.06;5117204;27;20470;-73
2022/06/30 08:25:50;;;;;;;17.70;16.52;;;;;;;52.32;4.74;99688.63;5079528;27;20058;-71
2022/06/30 08:28:15;;;;;;;16.42;15.00;;;;;;;52.24;4.96;99685.72;5096559;27;20166;-73
2022/06/30 08:30:40;;;;;;;16.20;15.27;;;;;;;51.91;4.79;99682.00;5077830;27;20031;-74
2022/06/30 08:33:04;;;;;;;17.98;16.88;;;;;;;51.88;4.91;99675.88;5096275;27;20053;-74
2022/06/30 08:35:29;;;;;;;19.25;17.80;;;;;;;52.01;4.94;99678.47;5078001;27;20039;-75
2022/06/30 08:37:54;;;;;;;19.58;18.40;;;;;;;52.16;5.13;99668.88;5078090;27;20714;-73
2022/06/30 08:43:03;;;;;;;19.73;18.38;;;;;;;52.66;4.68;99681.72;5077658;27;20043;-71
2022/06/30 08:45:29;;;;;;;21.63;20.23;;;;;;;52.70;4.83;99673.22;5077368;27;20554;-73
2022/06/30 08:47:54;;;;;;;23.08;21.27;;;;;;;52.66;4.71;99669.50;5095749;27;20435;-74
2022/06/30 08:50:19;;;;;;;22.48;20.88;;;;;;;52.68;4.95;99670.75;5095951;27;20409;-74
2022/06/30 08:52:46;;;;;;;22.65;20.90;;;;;;;52.91;4.63;99665.72;5095889;27;20046;-73
2022/06/30 08:55:16;;;;;;;21.77;20.27;;;;;;;53.21;4.44;99676.97;5098455;27;20046;-73
2022/06/30 08:57:42;;;;;;;24.00;22.15;;;;;;;53.38;4.18;99666.13;5115706;27;20043;-73
2022/06/30 09:00:08;;;;;;;24.50;22.67;;;;;;;53.67;4.46;99667.94;5116693;27;20492;-75
2022/06/30 09:02:33;;;;;;;28.27;26.50;;;;;;;53.67;4.16;99661.44;5097365;27;20031;-72
2022/06/30 09:04:58;;;;;;;27.80;26.27;;;;;;;53.92;4.40;99668.13;5116683;27;20072;-73
2022/06/30 09:07:23;;;;;;;33.65;31.60;;;;;;;54.27;4.35;99708.25;5097623;27;20133;-72
2022/06/30 09:09:48;;;;;;;32.35;30.50;;;;;;;54.60;4.00;99709.19;5116595;27;20053;-72
2022/06/30 09:12:15;;;;;;;33.67;31.67;;;;;;;54.92;4.08;99717.81;5116064;27;20042;-73
2022/06/30 09:14:48;;;;;;;36.33;34.20;;;;;;;55.03;3.76;99719.47;5116071;27;20046;-72
2022/06/30 09:17:18;;;;;;;40.10;37.92;;;;;;;55.22;4.14;99717.44;5097250;27;20877;-71
2022/06/30 09:19:52;;;;;;;44.28;41.70;;;;;;;55.77;3.52;99717.00;5080126;27;20035;-73
2022/06/30 09:22:17;;;;;;;43.08;40.67;;;;;;;55.28;4.09;99738.69;5097108;27;20081;-72
2022/06/30 09:24:42;;;;;;;37.42;35.13;;;;;;;55.36;3.85;99714.59;5111566;27;20504;-73
2022/06/30 09:27:20;;;;;;;42.40;40.17;;;;;;;55.73;3.69;99715.00;5097209;27;20038;-73
2022/06/30 09:29:50;;;;;;;48.53;46.15;;;;;;;55.79;3.57;99729.69;5119505;27;20053;-72
2022/06/30 09:32:15;;;;;;;49.53;47.10;;;;;;;55.75;3.56;99711.72;5119691;27;20038;-73
2022/06/30 09:34:42;;;;;;;49.85;47.45;;;;;;;55.97;3.59;99695.31;5101581;27;20042;-75
2022/06/30 09:37:21;;;;;;;46.72;44.60;;;;;;;56.10;3.60;99688.72;5083798;27;20047;-74
2022/06/30 09:39:47;;;;;;;42.22;40.13;;;;;;;55.05;4.03;99681.91;5101733;27;20126;-74
2022/06/30 09:42:13;;;;;;;46.55;44.17;;;;;;;55.26;4.12;99713.38;5119816;27;20046;-73
2022/06/30 09:44:39;;;;;;;45.78;43.50;;;;;;;55.70;3.66;99720.69;5119194;27;20049;-74
2022/06/30 09:47:10;;;;;;;47.38;44.53;;;;;;;56.32;3.69;99675.13;5120066;27;20034;-75
2022/06/30 09:49:46;;;;;;;55.92;53.13;;;;;;;56.45;3.29;99675.47;5101195;27;20578;-73
2022/06/30 09:52:23;;;;;;;56.00;53.47;;;;;;;57.47;3.34;99676.72;5119523;27;20042;-74
2022/06/30 09:54:54;;;;;;;55.38;52.47;;;;;;;57.44;3.26;99676.78;5119459;27;20099;-73
2022/06/30 09:57:19;;;;;;;;;;;;;;;59.00;3.12;99689.13;5099864;27;20042;-74
2022/06/30 09:59:44;;;;;;;63.70;60.15;;;;;;;57.61;2.97;99672.13;5098992;27;19915;-73
2022/06/30 10:02:10;;;;;;;58.58;55.90;;;;;;;57.58;2.96;99684.44;5099167;27;20088;-70
2022/06/30 10:04:55;;;;;;;64.30;61.30;;;;;;;58.33;2.79;99679.44;5099678;27;20039;-70
2022/06/30 10:07:21;;;;;;;74.82;70.82;;;;;;;57.17;2.92;99662.28;5099414;27;20031;-71
2022/06/30 10:09:49;;;;;;;64.38;60.05;;;;;;;57.16;3.27;99672.13;5081127;27;20046;-77
2022/06/30 10:12:14;;;;;;;67.32;63.53;;;;;;;57.14;3.04;99658.19;5080988;27;20493;-77
2022/06/30 10:14:40;;;;;;;70.28;66.65;;;;;;;57.03;3.25;99650.94;5098902;27;20043;-76
2022/06/30 10:17:08;;;;;;;70.95;67.35;;;;;;;57.20;3.21;99664.31;5098614;27;20047;-77
2022/06/30 10:19:33;;;;;;;63.45;59.97;;;;;;;57.29;2.90;99656.03;5048930;27;20162;-77
2022/06/30 10:21:59;;;;;;;73.22;69.90;;;;;;;57.48;3.06;99646.00;5105334;27;20099;-75
2022/06/30 10:24:24;;;;;;;76.25;72.38;;;;;;;57.63;3.08;99650.38;5098851;27;20047;-76
2022/06/30 10:29:34;;;;;;;86.93;81.28;;;;;;;57.49;3.06;99650.50;5118683;27;20859;-77
2022/06/30 10:32:06;;;;;;;82.82;79.15;;;;;;;57.37;3.03;99646.13;5100868;27;20118;-75
2022/06/30 10:34:39;;;;;;;82.25;78.65;;;;;;;57.05;3.30;99668.53;5100337;27;20038;-73
2022/06/30 10:37:15;;;;;;;54.83;51.95;;;;;;;54.59;4.10;99599.84;5118703;27;20042;-74
2022/06/30 10:39:50;;;;;;;34.65;32.85;;;;;;;50.45;5.34;99575.28;5118680;27;20110;-73
2022/06/30 10:42:50;;;;;;;21.25;19.58;;;;;;;46.98;6.78;99550.88;5083479;27;20042;-73
2022/06/30 10:45:30;;;;;;;12.30;11.05;;;;;;;43.45;8.89;99556.72;5100350;27;20046;-75
2022/06/30 10:48:06;;;;;;;11.05;7.45;;;;;;;40.66;10.33;99554.53;5118038;27;20496;-74
2022/06/30 10:50:37;;;;;;;9.75;5.97;;;;;;;38.30;12.36;99539.81;5099937;27;20382;-74
2022/06/30 10:53:04;;;;;;;5.72;5.18;;;;;;;36.74;13.97;99536.94;5118668;27;20039;-74
2022/06/30 10:55:40;;;;;;;8.98;4.95;;;;;;;35.46;14.21;99529.78;5100333;27;20053;-73
2022/06/30 10:58:07;;;;;;;9.27;4.00;;;;;;;34.43;15.44;99531.56;5117615;27;20437;-76
2022/06/30 11:01:11;;;;;;;5.28;4.28;;;;;;;34.03;15.01;99529.34;5118660;27;20050;-74
2022/06/30 11:03:37;;;;;;;10.90;4.53;;;;;;;32.80;16.77;99523.63;5001545;28;20544;-73
2022/06/30 11:06:06;;;;;;;10.50;4.07;;;;;;;32.21;17.47;99528.03;5016457;28;20053;-73
2022/06/30 11:08:46;;;;;;;13.05;4.63;;;;;;;31.68;17.68;99534.88;5014848;28;20638;-72
2022/06/30 11:11:20;;;;;;;3.85;3.45;;;;;;;31.15;18.75;99513.22;4982152;28;20053;-76
2022/06/30 11:13:46;;;;;;;5.88;4.05;;;;;;;30.36;20.16;99512.91;4984128;28;20118;-77
2022/06/30 11:16:14;;;;;;;4.10;3.70;;;;;;;29.99;20.91;99503.25;4998657;28;20045;-77
2022/06/30 11:18:39;;;;;;;6.35;3.65;;;;;;;29.53;21.50;99504.84;4997882;28;20056;-76
2022/06/30 11:21:04;;;;;;;9.18;3.63;;;;;;;29.16;21.78;99493.94;4982275;28;20124;-77
2022/06/30 11:23:36;;;;;;;6.22;3.40;;;;;;;28.90;21.85;99500.63;5015353;28;20044;-77
2022/06/30 11:28:46;;;;;;;11.20;3.75;;;;;;;28.59;21.72;99498.06;5000333;28;20148;-72
2022/06/30 11:31:32;;;;;;;8.63;3.00;;;;;;;28.61;20.87;99495.94;4997151;28;20128;-78
2022/06/30 11:33:59;;;;;;;7.35;3.45;;;;;;;28.22;22.80;99494.47;4996658;28;20571;-78
2022/06/30 11:36:24;;;;;;;12.68;3.67;;;;;;;28.02;22.78;99497.41;4980367;28;20055;-78
2022/06/30 11:39:17;;;;;;;10.38;3.67;;;;;;;28.02;23.43;99499.31;5020017;27;20055;-77
2022/06/30 11:41:56;;;;;;;7.95;3.28;;;;;;;27.72;23.99;99491.78;5098302;27;20126;-77